Time;durP1;ratioP1;P1;durP2;ratioP2;P2;SDS_P1;SDS_P2;PMS_P1;PMS_P2;Temp;Humidity;BMP_temperature;BMP_pressure;BME280_temperature;BME280_humidity;BME280_pressure;Samples;Min_cycle;Max_cycle;Signal;HPM_P1;HPM_P2
2019/09/26 00:01:04;;;;;;;8;1.6;;;;;;;;;;;;;
2019/09/26 00:03:29;;;;;;;4.4;1.6;;;;;;;;;;;;;
2019/09/26 00:05:52;;;;;;;6.8;1.8;;;;;;;;;;;;;
2019/09/26 00:08:16;;;;;;;3.4;1.4;;;;;;;;;;;;;
2019/09/26 00:10:42;;;;;;;3.5;1.5;;;;;;;;;;;;;
2019/09/26 00:13:08;;;;;;;4;1.5;;;;;;;;;;;;;
2019/09/26 00:15:32;;;;;;;3.6;1.6;;;;;;;;;;;;;
2019/09/26 00:17:57;;;;;;;3.7;1.5;;;;;;;;;;;;;
2019/09/26 00:20:22;;;;;;;3.2;1.3;;;;;;;;;;;;;
2019/09/26 00:22:50;;;;;;;4.5;1.4;;;;;;;;;;;;;
2019/09/26 00:25:12;;;;;;;4.1;1.4;;;;;;;;;;;;;
2019/09/26 00:27:38;;;;;;;3.5;1.4;;;;;;;;;;;;;
2019/09/26 00:30:02;;;;;;;6.5;1.7;;;;;;;;;;;;;
2019/09/26 00:32:33;;;;;;;5.1;1.6;;;;;;;;;;;;;
2019/09/26 00:34:57;;;;;;;2.1;1.1;;;;;;;;;;;;;
2019/09/26 00:37:19;;;;;;;3.2;1.3;;;;;;;;;;;;;
2019/09/26 00:39:43;;;;;;;5.2;1.4;;;;;;;;;;;;;
2019/09/26 00:42:11;;;;;;;2.9;1.2;;;;;;;;;;;;;
2019/09/26 00:44:35;;;;;;;2.5;1.1;;;;;;;;;;;;;
2019/09/26 00:47:01;;;;;;;3.2;1.1;;;;;;;;;;;;;
2019/09/26 00:49:31;;;;;;;2.5;1.1;;;;;;;;;;;;;
2019/09/26 00:51:52;;;;;;;5.1;1.3;;;;;;;;;;;;;
2019/09/26 00:54:19;;;;;;;3.4;1.2;;;;;;;;;;;;;
2019/09/26 00:56:41;;;;;;;2.8;1.4;;;;;;;;;;;;;
2019/09/26 00:59:12;;;;;;;4.2;1.2;;;;;;;;;;;;;
2019/09/26 01:01:33;;;;;;;3.1;1.6;;;;;;;;;;;;;
2019/09/26 01:03:57;;;;;;;3.7;1.3;;;;;;;;;;;;;
2019/09/26 01:06:22;;;;;;;4.6;1.5;;;;;;;;;;;;;
2019/09/26 01:08:47;;;;;;;3.5;1.5;;;;;;;;;;;;;
2019/09/26 01:11:12;;;;;;;4.1;1.5;;;;;;;;;;;;;
2019/09/26 01:14:24;;;;;;;3.7;1.6;;;;;;;;;;;;;
2019/09/26 01:16:51;;;;;;;3.3;1.6;;;;;;;;;;;;;
2019/09/26 01:19:14;;;;;;;3.5;1.6;;;;;;;;;;;;;
2019/09/26 01:21:46;;;;;;;3.2;1.6;;;;;;;;;;;;;
2019/09/26 01:24:05;;;;;;;3.2;1.4;;;;;;;;;;;;;
2019/09/26 01:26:30;;;;;;;2.5;1.6;;;;;;;;;;;;;
2019/09/26 01:28:57;;;;;;;3.8;1.4;;;;;;;;;;;;;
2019/09/26 01:31:21;;;;;;;5.3;1.6;;;;;;;;;;;;;
2019/09/26 01:33:47;;;;;;;3.5;1.4;;;;;;;;;;;;;
2019/09/26 01:36:14;;;;;;;2.5;1.2;;;;;;;;;;;;;
2019/09/26 01:38:38;;;;;;;4.3;1.3;;;;;;;;;;;;;
2019/09/26 01:41:03;;;;;;;5.1;1.3;;;;;;;;;;;;;
2019/09/26 01:43:33;;;;;;;4;1;;;;;;;;;;;;;
2019/09/26 01:46:00;;;;;;;3;1.2;;;;;;;;;;;;;
2019/09/26 01:48:31;;;;;;;3.6;1.1;;;;;;;;;;;;;
2019/09/26 01:51:19;;;;;;;5.8;1.3;;;;;;;;;;;;;
2019/09/26 01:53:16;;;;;;;3.3;0.9;;;;;;;;;;;;;
2019/09/26 02:05:48;;;;;;;3.6;1.4;;;;;;;;;;;;;
2019/09/26 02:11:31;;;;;;;2.1;1.3;;;;;;;;;;;;;
2019/09/26 02:17:22;;;;;;;5.2;1.4;;;;;;;;;;;;;
2019/09/26 02:19:32;;;;;;;2;1.3;;;;;;;;;;;;;
2019/09/26 02:21:59;;;;;;;3.9;1.5;;;;;;;;;;;;;
2019/09/26 02:24:24;;;;;;;6.3;1.3;;;;;;;;;;;;;
2019/09/26 02:26:52;;;;;;;6.9;1.6;;;;;;;;;;;;;
2019/09/26 02:29:15;;;;;;;5;1.3;;;;;;;;;;;;;
2019/09/26 02:31:42;;;;;;;2.7;1.3;;;;;;;;;;;;;
2019/09/26 02:34:06;;;;;;;4;1.3;;;;;;;;;;;;;
2019/09/26 02:36:31;;;;;;;4.1;1.3;;;;;;;;;;;;;
2019/09/26 02:38:58;;;;;;;3.9;1.7;;;;;;;;;;;;;
2019/09/26 02:41:23;;;;;;;5.3;1.9;;;;;;;;;;;;;
2019/09/26 02:43:48;;;;;;;3.1;1.7;;;;;;;;;;;;;
2019/09/26 02:46:18;;;;;;;6;2;;;;;;;;;;;;;
2019/09/26 02:48:41;;;;;;;7.3;2.6;;;;;;;;;;;;;
2019/09/26 02:51:05;;;;;;;6.7;2.6;;;;;;;;;;;;;
2019/09/26 02:53:43;;;;;;;7.6;2.1;;;;;;;;;;;;;
2019/09/26 02:55:58;;;;;;;4.1;1.8;;;;;;;;;;;;;
2019/09/26 02:58:23;;;;;;;3.4;1.4;;;;;;;;;;;;;
2019/09/26 03:00:49;;;;;;;3.9;1.4;;;;;;;;;;;;;
2019/09/26 03:03:17;;;;;;;2.7;1.5;;;;;;;;;;;;;
2019/09/26 03:05:44;;;;;;;3.4;1.4;;;;;;;;;;;;;
2019/09/26 03:08:10;;;;;;;3.4;1.5;;;;;;;;;;;;;
2019/09/26 03:10:35;;;;;;;3.1;1.2;;;;;;;;;;;;;
2019/09/26 03:13:01;;;;;;;3.6;1.5;;;;;;;;;;;;;
2019/09/26 03:15:25;;;;;;;5.8;1.3;;;;;;;;;;;;;
2019/09/26 03:17:52;;;;;;;2.7;1.3;;;;;;;;;;;;;
2019/09/26 03:20:19;;;;;;;3.7;1.5;;;;;;;;;;;;;
2019/09/26 03:22:44;;;;;;;5.1;1.2;;;;;;;;;;;;;
2019/09/26 03:25:10;;;;;;;2.7;1.3;;;;;;;;;;;;;
2019/09/26 03:27:35;;;;;;;2.7;1.4;;;;;;;;;;;;;
2019/09/26 03:30:01;;;;;;;3.7;1.5;;;;;;;;;;;;;
2019/09/26 03:32:24;;;;;;;2.9;1.7;;;;;;;;;;;;;
2019/09/26 03:34:55;;;;;;;4.3;2.1;;;;;;;;;;;;;
2019/09/26 03:37:17;;;;;;;5.9;2.5;;;;;;;;;;;;;
2019/09/26 03:39:44;;;;;;;4.4;2;;;;;;;;;;;;;
2019/09/26 03:42:11;;;;;;;3;1.9;;;;;;;;;;;;;
2019/09/26 03:44:33;;;;;;;5.8;1.7;;;;;;;;;;;;;
2019/09/26 03:47:19;;;;;;;2.8;1.7;;;;;;;;;;;;;
2019/09/26 03:49:26;;;;;;;3.3;1.7;;;;;;;;;;;;;
2019/09/26 03:53:29;;;;;;;3.2;1.6;;;;;;;;;;;;;
2019/09/26 03:55:53;;;;;;;4.1;1.4;;;;;;;;;;;;;
2019/09/26 03:58:24;;;;;;;2.1;1.2;;;;;;;;;;;;;
2019/09/26 04:02:51;;;;;;;4;1.4;;;;;;;11.99;91.13184;936.084;;;;
2019/09/26 04:05:14;;;;;;;3.8;1.6;;;;;;;12;91.14746;936.0912;;;;
2019/09/26 04:10:48;;;;;;;3.2;1.8;;;;;;;12.16;91.22559;936.1227;;;;
2019/09/26 04:13:16;;;;;;;3.4;1.8;;;;;;;12.34;90.23145;936.1484;;;;
2019/09/26 04:16:28;;;;;;;4.5;2;;;;;;;12.4;89.55469;936.1827;;;;
2019/09/26 04:18:56;;;;;;;5;1.7;;;;;;;12.46;89.15723;936.202;;;;
2019/09/26 04:21:23;;;;;;;2.6;1.8;;;;;;;12.37;89.0332;936.205;;;;
2019/09/26 04:23:55;;;;;;;5.2;2.2;;;;;;;12.38;89.10352;936.1794;;;;
2019/09/26 04:26:30;;;;;;;7.4;2.2;;;;;;;12.53;89.18164;936.1548;;;;
2019/09/26 04:29:01;;;;;;;5.2;2.4;;;;;;;12.54;88.54297;936.0637;;;;
2019/09/26 04:31:26;;;;;;;3.7;2;;;;;;;12.46;88.66211;936.1638;;;;
2019/09/26 04:33:54;;;;;;;3.4;1.8;;;;;;;12.47;88.88379;936.1317;;;;
2019/09/26 04:36:28;;;;;;;3.1;2.1;;;;;;;12.44;89.15332;936.1685;;;;
2019/09/26 04:39:00;;;;;;;5;2;;;;;;;12.52;88.80078;936.1428;;;;
2019/09/26 04:41:26;;;;;;;7.2;1.6;;;;;;;12.58;88.49121;936.1292;;;;
2019/09/26 04:43:57;;;;;;;4.4;1.5;;;;;;;12.62;88.61426;936.1174;;;;
2019/09/26 04:46:23;;;;;;;4.8;1.5;;;;;;;12.72;88.04004;936.1331;;;;
2019/09/26 04:48:50;;;;;;;3.4;1.5;;;;;;;12.87;87.76855;936.2081;;;;
2019/09/26 04:51:21;;;;;;;3.9;1.5;;;;;;;12.86;87.44531;936.185;;;;
2019/09/26 04:53:51;;;;;;;2.8;1.3;;;;;;;12.84;87.40918;936.2418;;;;
2019/09/26 04:56:22;;;;;;;2.9;1.2;;;;;;;12.77;87.79688;936.2034;;;;
2019/09/26 04:58:54;;;;;;;4.3;1.1;;;;;;;12.89;87.35938;936.1155;;;;
2019/09/26 05:01:27;;;;;;;2.9;1.5;;;;;;;12.76;87.79492;936.1122;;;;
2019/09/26 05:03:55;;;;;;;3.3;2.1;;;;;;;12.6;88.65723;936.1555;;;;
2019/09/26 05:06:21;;;;;;;4.3;2;;;;;;;12.67;88.92383;936.17;;;;
2019/09/26 05:09:33;;;;;;;4.8;1.8;;;;;;;12.73;88.36133;936.2106;;;;
2019/09/26 05:11:58;;;;;;;3.1;1.7;;;;;;;12.66;87.22266;936.1868;;;;
2019/09/26 05:14:28;;;;;;;6.3;2.5;;;;;;;12.68;88.70801;936.1916;;;;
2019/09/26 05:16:55;;;;;;;5.6;1.8;;;;;;;12.78;88.12988;936.2681;;;;
2019/09/26 05:19:24;;;;;;;3;1.9;;;;;;;12.79;87.86914;936.248;;;;
2019/09/26 05:21:47;;;;;;;3.5;1.6;;;;;;;12.75;87.83691;936.3464;;;;
2019/09/26 05:24:16;;;;;;;5.4;2.4;;;;;;;12.77;88.11816;936.3599;;;;
2019/09/26 05:26:51;;;;;;;5;2.1;;;;;;;12.71;88.21973;936.3505;;;;
2019/09/26 05:29:32;;;;;;;2.8;1.6;;;;;;;12.79;87.83691;936.3791;;;;
2019/09/26 05:32:03;;;;;;;1.7;1.2;;;;;;;12.69;87.9873;936.4224;;;;
2019/09/26 05:34:29;;;;;;;3.1;1.3;;;;;;;12.66;88.46094;936.4696;;;;
2019/09/26 05:36:59;;;;;;;4.3;1.2;;;;;;;12.65;88.36816;936.4568;;;;
2019/09/26 05:39:28;;;;;;;3.7;1.5;;;;;;;12.46;89.17773;936.4983;;;;
2019/09/26 05:42:02;;;;;;;3.5;1.3;;;;;;;12.4;89.83203;936.454;;;;
2019/09/26 05:44:30;;;;;;;2.4;1.3;;;;;;;12.46;89.45313;936.5039;;;;
2019/09/26 05:46:55;;;;;;;4.1;1.8;;;;;;;12.47;89.54883;936.5933;;;;
2019/09/26 05:49:28;;;;;;;5.1;2.4;;;;;;;12.47;89.93652;936.5845;;;;
2019/09/26 05:54:37;;;;;;;7.6;2.4;;;;;;;12.65;89.28613;936.6245;;;;
2019/09/26 05:57:10;;;;;;;3.8;2.2;;;;;;;12.66;89.25488;936.5958;;;;
2019/09/26 05:59:42;;;;;;;5;2.7;;;;;;;12.84;89.07227;936.6677;;;;
2019/09/26 06:02:09;;;;;;;4.1;2.4;;;;;;;13.03;88.1582;936.6916;;;;
2019/09/26 06:04:37;;;;;;;4.2;2.3;;;;;;;13.21;87.09375;936.6692;;;;
2019/09/26 06:07:11;;;;;;;5.4;2.2;;;;;;;13.23;86.78711;936.5932;;;;
2019/09/26 06:09:41;;;;;;;9.7;2.2;;;;;;;13.14;87.37793;936.6312;;;;
2019/09/26 06:12:10;;;;;;;6.4;2.2;;;;;;;13.28;87.39551;936.585;;;;
2019/09/26 06:14:41;;;;;;;5.9;2.3;;;;;;;13.43;87.09082;936.5792;;;;
2019/09/26 06:17:11;;;;;;;5.4;2.1;;;;;;;13.53;87.05273;936.5851;;;;
2019/09/26 06:19:37;;;;;;;4.8;1.9;;;;;;;13.58;86.22266;936.596;;;;
2019/09/26 06:22:08;;;;;;;3.4;1.5;;;;;;;13.65;85.98242;936.6072;;;;
2019/09/26 06:24:42;;;;;;;4.2;1.4;;;;;;;13.58;85.22461;936.516;;;;
2019/09/26 06:27:11;;;;;;;2.9;1.4;;;;;;;13.66;85.58301;936.608;;;;
2019/09/26 06:29:45;;;;;;;2.5;1;;;;;;;13.64;84.80957;936.5864;;;;
2019/09/26 06:32:06;;;;;;;2.3;1.1;;;;;;;;;;;;;
2019/09/26 06:34:34;;;;;;;4.1;1.3;;;;;;;;;;;;;
2019/09/26 06:36:59;;;;;;;3.4;1.5;;;;;;;;;;;;;
2019/09/26 06:39:27;;;;;;;5.8;1.6;;;;;;;;;;;;;
2019/09/26 06:41:54;;;;;;;5.3;1.3;;;;;;;;;;;;;
2019/09/26 06:44:23;;;;;;;7.5;1.3;;;;;;;;;;;;;
2019/09/26 06:46:45;;;;;;;3.6;0.8;;;;;;;;;;;;;
2019/09/26 06:49:28;;;;;;;1.8;1;;;;;;;;;;;;;
2019/09/26 06:51:53;;;;;;;2.4;1.1;;;;;;;;;;;;;
2019/09/26 06:54:22;;;;;;;1.8;0.9;;;;;;;;;;;;;
2019/09/26 06:56:49;;;;;;;1.9;1;;;;;;;;;;;;;
2019/09/26 06:59:09;;;;;;;3;1;;;;;;;;;;;;;
2019/09/26 07:01:34;;;;;;;3.2;1.9;;;;;;;;;;;;;
2019/09/26 07:04:02;;;;;;;3.5;1.2;;;;;;;;;;;;;
2019/09/26 07:06:26;;;;;;;3.4;1.1;;;;;;;;;;;;;
2019/09/26 07:08:53;;;;;;;4.8;1.1;;;;;;;;;;;;;
2019/09/26 07:11:31;;;;;;;2.5;0.9;;;;;;;;;;;;;
2019/09/26 07:13:49;;;;;;;1.9;1.2;;;;;;;;;;;;;
2019/09/26 07:16:11;;;;;;;3.8;1.4;;;;;;;;;;;;;
2019/09/26 07:18:34;;;;;;;2.7;0.7;;;;;;;;;;;;;
2019/09/26 07:21:01;;;;;;;1.4;0.6;;;;;;;;;;;;;
2019/09/26 07:23:25;;;;;;;1.8;0.8;;;;;;;;;;;;;
2019/09/26 07:25:50;;;;;;;2.7;0.7;;;;;;;;;;;;;
2019/09/26 07:28:17;;;;;;;1.8;0.7;;;;;;;;;;;;;
2019/09/26 07:33:10;;;;;;;2.9;1.1;;;;;;;;;;;;;
2019/09/26 07:35:35;;;;;;;1.9;0.7;;;;;;;;;;;;;
2019/09/26 07:38:06;;;;;;;2.1;0.9;;;;;;;;;;;;;
2019/09/26 07:40:28;;;;;;;3.6;1;;;;;;;;;;;;;
2019/09/26 07:42:53;;;;;;;3.7;1;;;;;;;;;;;;;
2019/09/26 07:45:29;;;;;;;3;1.3;;;;;;;;;;;;;
2019/09/26 07:47:50;;;;;;;4.7;1.7;;;;;;;;;;;;;
2019/09/26 07:50:14;;;;;;;4.7;2;;;;;;;;;;;;;
2019/09/26 07:52:39;;;;;;;4.1;1.3;;;;;;;;;;;;;
2019/09/26 07:55:05;;;;;;;3.3;1.5;;;;;;;;;;;;;
2019/09/26 07:57:30;;;;;;;3.8;1.9;;;;;;;;;;;;;
2019/09/26 07:59:54;;;;;;;2.1;1.3;;;;;;;;;;;;;
2019/09/26 08:04:50;;;;;;;2.5;1.2;;;;;;;;;;;;;
2019/09/26 08:07:11;;;;;;;2;0.9;;;;;;;;;;;;;
2019/09/26 08:09:37;;;;;;;3.3;1.1;;;;;;;;;;;;;
2019/09/26 08:12:06;;;;;;;2.2;1.2;;;;;;;;;;;;;
2019/09/26 08:14:29;;;;;;;3.1;1.2;;;;;;;;;;;;;
2019/09/26 08:16:53;;;;;;;2;1.2;;;;;;;;;;;;;
2019/09/26 08:19:18;;;;;;;2.5;1.4;;;;;;;;;;;;;
2019/09/26 08:21:43;;;;;;;2.8;1.1;;;;;;;;;;;;;
2019/09/26 08:24:13;;;;;;;1.9;1;;;;;;;;;;;;;
2019/09/26 08:26:34;;;;;;;1.4;1;;;;;;;;;;;;;
2019/09/26 08:28:59;;;;;;;1.5;0.8;;;;;;;;;;;;;
2019/09/26 08:31:29;;;;;;;2.3;0.9;;;;;;;;;;;;;
2019/09/26 08:33:50;;;;;;;2.9;1.2;;;;;;;;;;;;;
2019/09/26 08:36:16;;;;;;;1.7;0.8;;;;;;;;;;;;;
2019/09/26 08:38:40;;;;;;;1.8;0.8;;;;;;;;;;;;;
2019/09/26 08:41:28;;;;;;;1.4;0.8;;;;;;;;;;;;;
2019/09/26 08:43:53;;;;;;;1.5;0.8;;;;;;;;;;;;;
2019/09/26 08:46:17;;;;;;;2.4;0.8;;;;;;;;;;;;;
2019/09/26 08:48:42;;;;;;;2.2;0.9;;;;;;;;;;;;;
2019/09/26 08:51:10;;;;;;;2.3;1;;;;;;;;;;;;;
2019/09/26 08:53:35;;;;;;;4.1;1.9;;;;;;;;;;;;;
2019/09/26 08:56:00;;;;;;;2;1;;;;;;;;;;;;;
2019/09/26 08:58:28;;;;;;;1.8;1.1;;;;;;;;;;;;;
2019/09/26 09:00:50;;;;;;;1.3;0.7;;;;;;;;;;;;;
2019/09/26 09:03:15;;;;;;;3.3;0.8;;;;;;;;;;;;;
2019/09/26 09:05:41;;;;;;;2.7;1;;;;;;;;;;;;;
2019/09/26 09:08:08;;;;;;;2.6;1.1;;;;;;;;;;;;;
2019/09/26 09:10:32;;;;;;;3.2;1.4;;;;;;;;;;;;;
2019/09/26 09:12:56;;;;;;;2.3;1;;;;;;;;;;;;;
2019/09/26 09:15:21;;;;;;;2;1.3;;;;;;;;;;;;;
2019/09/26 09:17:50;;;;;;;2.3;1.3;;;;;;;;;;;;;
2019/09/26 09:20:13;;;;;;;2.4;1.4;;;;;;;;;;;;;
2019/09/26 09:22:38;;;;;;;3.4;1.3;;;;;;;;;;;;;
2019/09/26 09:25:04;;;;;;;2.5;0.9;;;;;;;;;;;;;
2019/09/26 09:27:33;;;;;;;1.4;0.8;;;;;;;;;;;;;
2019/09/26 09:30:28;;;;;;;4.5;0.8;;;;;;;;;;;;;
2019/09/26 09:32:41;;;;;;;1.4;0.7;;;;;;;;;;;;;
2019/09/26 09:35:07;;;;;;;1.9;0.8;;;;;;;;;;;;;
2019/09/26 09:37:32;;;;;;;2;0.7;;;;;;;;;;;;;
2019/09/26 09:39:56;;;;;;;1.2;0.7;;;;;;;;;;;;;
2019/09/26 09:42:21;;;;;;;1.6;0.8;;;;;;;;;;;;;
2019/09/26 09:44:49;;;;;;;1;0.6;;;;;;;;;;;;;
2019/09/26 09:47:15;;;;;;;1.5;0.7;;;;;;;;;;;;;
2019/09/26 09:49:38;;;;;;;3;0.8;;;;;;;;;;;;;
2019/09/26 09:52:01;;;;;;;1.7;1;;;;;;;;;;;;;
2019/09/26 09:54:27;;;;;;;1.4;0.7;;;;;;;;;;;;;
2019/09/26 09:56:53;;;;;;;1.8;1.1;;;;;;;;;;;;;
2019/09/26 09:59:17;;;;;;;0.9;0.7;;;;;;;;;;;;;
2019/09/26 10:01:43;;;;;;;3;0.9;;;;;;;;;;;;;
2019/09/26 10:04:12;;;;;;;2.5;0.8;;;;;;;;;;;;;
2019/09/26 10:06:38;;;;;;;1.9;0.9;;;;;;;;;;;;;
2019/09/26 10:08:59;;;;;;;2.1;0.8;;;;;;;;;;;;;
2019/09/26 10:11:26;;;;;;;0.9;0.6;;;;;;;;;;;;;
2019/09/26 10:13:52;;;;;;;2.3;0.7;;;;;;;;;;;;;
2019/09/26 10:17:08;;;;;;;1.2;0.6;;;;;;;;;;;;;
2019/09/26 10:19:32;;;;;;;0.9;0.6;;;;;;;;;;;;;
2019/09/26 10:21:58;;;;;;;3.4;0.7;;;;;;;;;;;;;
2019/09/26 10:24:27;;;;;;;1;0.6;;;;;;;;;;;;;
2019/09/26 10:26:53;;;;;;;3.9;1.1;;;;;;;;;;;;;
2019/09/26 10:29:21;;;;;;;1.6;0.8;;;;;;;;;;;;;
2019/09/26 10:31:48;;;;;;;1.4;0.8;;;;;;;;;;;;;
2019/09/26 10:34:15;;;;;;;2.5;0.8;;;;;;;;;;;;;
2019/09/26 10:36:41;;;;;;;1.3;0.9;;;;;;;;;;;;;
2019/09/26 10:39:06;;;;;;;1.4;0.8;;;;;;;;;;;;;
2019/09/26 10:41:36;;;;;;;2;0.9;;;;;;;;;;;;;
2019/09/26 10:43:57;;;;;;;2.4;0.8;;;;;;;;;;;;;
2019/09/26 10:46:25;;;;;;;1.2;0.6;;;;;;;;;;;;;
2019/09/26 10:48:51;;;;;;;2.1;0.8;;;;;;;;;;;;;
2019/09/26 10:51:18;;;;;;;2.4;0.9;;;;;;;;;;;;;
2019/09/26 10:53:42;;;;;;;1.5;1.1;;;;;;;;;;;;;
2019/09/26 10:56:19;;;;;;;1.8;0.8;;;;;;;;;;;;;
2019/09/26 10:58:33;;;;;;;2.2;0.8;;;;;;;;;;;;;
2019/09/26 11:01:00;;;;;;;1.6;0.6;;;;;;;;;;;;;
2019/09/26 11:03:25;;;;;;;1.1;0.6;;;;;;;;;;;;;
2019/09/26 11:05:53;;;;;;;1.3;0.7;;;;;;;;;;;;;
2019/09/26 11:08:19;;;;;;;1.8;0.8;;;;;;;;;;;;;
2019/09/26 11:10:40;;;;;;;2.3;0.7;;;;;;;;;;;;;
2019/09/26 11:13:10;;;;;;;1.4;0.9;;;;;;;;;;;;;
2019/09/26 11:15:32;;;;;;;1.7;1.1;;;;;;;;;;;;;
2019/09/26 11:17:58;;;;;;;2.2;0.9;;;;;;;;;;;;;
2019/09/26 11:20:37;;;;;;;2.3;0.9;;;;;;;;;;;;;
2019/09/26 11:22:56;;;;;;;2.6;1;;;;;;;;;;;;;
2019/09/26 11:25:27;;;;;;;1.7;0.8;;;;;;;;;;;;;
2019/09/26 11:27:47;;;;;;;1.4;0.7;;;;;;;;;;;;;
2019/09/26 11:30:14;;;;;;;0.9;0.5;;;;;;;;;;;;;
2019/09/26 11:32:40;;;;;;;1.8;0.7;;;;;;;;;;;;;
2019/09/26 11:35:05;;;;;;;1.4;0.7;;;;;;;;;;;;;
2019/09/26 11:37:29;;;;;;;2.5;0.8;;;;;;;;;;;;;
2019/09/26 11:39:54;;;;;;;1.2;0.6;;;;;;;;;;;;;
2019/09/26 11:42:21;;;;;;;1.9;0.7;;;;;;;;;;;;;
2019/09/26 11:45:28;;;;;;;1.4;0.5;;;;;;;;;;;;;
2019/09/26 11:47:42;;;;;;;1.6;0.4;;;;;;;;;;;;;
2019/09/26 11:52:40;;;;;;;2.2;0.6;;;;;;;;;;;;;
2019/09/26 11:55:11;;;;;;;1.3;0.5;;;;;;;;;;;;;
2019/09/26 11:57:34;;;;;;;1.2;0.5;;;;;;;;;;;;;
2019/09/26 12:00:01;;;;;;;0.9;0.6;;;;;;;;;;;;;
2019/09/26 12:02:26;;;;;;;0.8;0.5;;;;;;;;;;;;;
2019/09/26 12:04:51;;;;;;;1.8;0.6;;;;;;;;;;;;;
2019/09/26 12:07:14;;;;;;;2.1;0.5;;;;;;;;;;;;;
2019/09/26 12:09:43;;;;;;;0.9;0.5;;;;;;;;;;;;;
2019/09/26 12:12:06;;;;;;;0.9;0.5;;;;;;;;;;;;;
2019/09/26 12:14:31;;;;;;;1.4;0.5;;;;;;;;;;;;;
2019/09/26 12:16:55;;;;;;;0.8;0.5;;;;;;;;;;;;;
2019/09/26 12:19:20;;;;;;;2.6;0.6;;;;;;;;;;;;;
2019/09/26 12:21:46;;;;;;;2.5;0.6;;;;;;;;;;;;;
2019/09/26 12:26:39;;;;;;;1.7;0.7;;;;;;;;;;;;;
2019/09/26 12:29:05;;;;;;;1.6;0.6;;;;;;;;;;;;;
2019/09/26 12:31:28;;;;;;;2.5;0.8;;;;;;;;;;;;;
2019/09/26 12:33:54;;;;;;;2.1;0.7;;;;;;;;;;;;;
2019/09/26 12:36:19;;;;;;;1;0.6;;;;;;;;;;;;;
2019/09/26 12:38:49;;;;;;;2;0.7;;;;;;;;;;;;;
2019/09/26 12:41:11;;;;;;;1.4;1;;;;;;;;;;;;;
2019/09/26 12:43:35;;;;;;;1.8;0.8;;;;;;;;;;;;;
2019/09/26 12:46:03;;;;;;;2.6;0.7;;;;;;;;;;;;;
2019/09/26 12:48:31;;;;;;;2.2;0.7;;;;;;;;;;;;;
2019/09/26 12:51:00;;;;;;;2.8;0.7;;;;;;;;;;;;;
2019/09/26 12:53:23;;;;;;;1.9;0.5;;;;;;;;;;;;;
2019/09/26 12:55:48;;;;;;;1;0.5;;;;;;;;;;;;;
2019/09/26 12:58:14;;;;;;;1.5;0.4;;;;;;;;;;;;;
2019/09/26 13:00:40;;;;;;;2.2;0.8;;;;;;;;;;;;;
2019/09/26 13:03:28;;;;;;;2.1;0.7;;;;;;;;;;;;;
2019/09/26 13:05:47;;;;;;;1.4;0.6;;;;;;;;;;;;;
2019/09/26 13:08:11;;;;;;;1.8;0.8;;;;;;;;;;;;;
2019/09/26 13:10:40;;;;;;;2.3;0.8;;;;;;;;;;;;;
2019/09/26 13:13:08;;;;;;;2.1;0.5;;;;;;;;;;;;;
2019/09/26 13:15:33;;;;;;;1.2;0.5;;;;;;;;;;;;;
2019/09/26 13:18:01;;;;;;;1.1;0.5;;;;;;;;;;;;;
2019/09/26 13:20:42;;;;;;;1.3;0.6;;;;;;;;;;;;;
2019/09/26 13:22:56;;;;;;;4.2;0.7;;;;;;;;;;;;;
2019/09/26 13:25:20;;;;;;;2;0.8;;;;;;;;;;;;;
2019/09/26 13:27:45;;;;;;;2.9;0.6;;;;;;;;;;;;;
2019/09/26 13:30:18;;;;;;;1.7;0.9;;;;;;;;;;;;;
2019/09/26 13:32:42;;;;;;;1.3;0.7;;;;;;;;;;;;;
2019/09/26 13:35:02;;;;;;;2.3;1;;;;;;;;;;;;;
2019/09/26 13:37:26;;;;;;;0.8;0.7;;;;;;;;;;;;;
2019/09/26 13:39:56;;;;;;;1.5;0.7;;;;;;;;;;;;;
2019/09/26 13:42:19;;;;;;;1.8;0.6;;;;;;;;;;;;;
2019/09/26 13:44:44;;;;;;;1.6;0.8;;;;;;;;;;;;;
2019/09/26 13:47:08;;;;;;;0.9;0.5;;;;;;;;;;;;;
2019/09/26 13:49:37;;;;;;;2.7;0.8;;;;;;;;;;;;;
2019/09/26 13:51:59;;;;;;;2.1;0.7;;;;;;;;;;;;;
2019/09/26 13:54:23;;;;;;;2;0.8;;;;;;;;;;;;;
2019/09/26 13:56:48;;;;;;;1.7;0.7;;;;;;;;;;;;;
2019/09/26 13:59:20;;;;;;;1.5;0.8;;;;;;;;;;;;;
2019/09/26 14:01:45;;;;;;;1.4;0.6;;;;;;;;;;;;;
2019/09/26 14:04:31;;;;;;;1.7;0.7;;;;;;;;;;;;;
2019/09/26 14:07:35;;;;;;;0.9;0.5;;;;;;;;;;;;;
2019/09/26 14:09:42;;;;;;;1.3;0.6;;;;;;;;;;;;;
2019/09/26 14:12:07;;;;;;;1.9;0.7;;;;;;;;;;;;;
2019/09/26 14:14:33;;;;;;;1.5;0.6;;;;;;;;;;;;;
2019/09/26 14:19:40;;;;;;;1.8;0.6;;;;;;;;;;;;;
2019/09/26 14:22:08;;;;;;;1.1;0.6;;;;;;;;;;;;;
2019/09/26 14:24:30;;;;;;;2.2;0.8;;;;;;;;;;;;;
2019/09/26 14:26:55;;;;;;;1.4;0.6;;;;;;;;;;;;;
2019/09/26 14:29:24;;;;;;;1.5;0.7;;;;;;;;;;;;;
2019/09/26 14:31:50;;;;;;;1.9;0.7;;;;;;;;;;;;;
2019/09/26 14:36:39;;;;;;;1.6;0.9;;;;;;;;;;;;;
2019/09/26 14:39:31;;;;;;;1.4;0.9;;;;;;;;;;;;;
2019/09/26 14:41:42;;;;;;;1.3;0.7;;;;;;;;;;;;;
2019/09/26 14:44:06;;;;;;;1.2;0.6;;;;;;;;;;;;;
2019/09/26 14:46:45;;;;;;;1.9;0.6;;;;;;;;;;;;;
2019/09/26 14:49:31;;;;;;;0.9;0.5;;;;;;;;;;;;;
2019/09/26 14:51:54;;;;;;;0.9;0.6;;;;;;;;;;;;;
2019/09/26 14:54:20;;;;;;;1.3;0.6;;;;;;;;;;;;;
2019/09/26 14:56:49;;;;;;;2.6;0.7;;;;;;;;;;;;;
2019/09/26 14:59:14;;;;;;;2.2;0.6;;;;;;;;;;;;;
2019/09/26 15:01:45;;;;;;;1.1;0.6;;;;;;;;;;;;;
2019/09/26 15:04:04;;;;;;;1.3;0.6;;;;;;;;;;;;;
2019/09/26 15:06:30;;;;;;;2.6;0.7;;;;;;;;;;;;;
2019/09/26 15:08:55;;;;;;;1.6;0.7;;;;;;;;;;;;;
2019/09/26 15:11:28;;;;;;;3;1;;;;;;;;;;;;;
2019/09/26 15:13:46;;;;;;;1.5;0.9;;;;;;;;;;;;;
2019/09/26 15:16:13;;;;;;;0.7;0.5;;;;;;;;;;;;;
2019/09/26 15:18:47;;;;;;;1.3;0.8;;;;;;;;;;;;;
2019/09/26 15:21:09;;;;;;;1.1;0.7;;;;;;;;;;;;;
2019/09/26 15:23:28;;;;;;;1.3;0.7;;;;;;;;;;;;;
2019/09/26 15:25:53;;;;;;;1.4;0.8;;;;;;;;;;;;;
2019/09/26 15:28:20;;;;;;;4.9;1;;;;;;;;;;;;;
2019/09/26 15:30:48;;;;;;;3.5;1.4;;;;;;;;;;;;;
2019/09/26 15:33:20;;;;;;;2.4;1;;;;;;;;;;;;;
2019/09/26 15:35:34;;;;;;;2.8;1.3;;;;;;;;;;;;;
2019/09/26 15:38:03;;;;;;;4.5;1.5;;;;;;;;;;;;;
2019/09/26 15:40:30;;;;;;;1.5;1;;;;;;;;;;;;;
2019/09/26 15:43:00;;;;;;;1.4;0.8;;;;;;;;;;;;;
2019/09/26 15:45:22;;;;;;;1.9;0.7;;;;;;;;;;;;;
2019/09/26 15:47:47;;;;;;;1.7;0.7;;;;;;;;;;;;;
2019/09/26 15:50:12;;;;;;;2;0.9;;;;;;;;;;;;;
2019/09/26 15:52:39;;;;;;;2;1;;;;;;;;;;;;;
2019/09/26 15:55:03;;;;;;;1.2;0.8;;;;;;;;;;;;;
2019/09/26 15:57:30;;;;;;;1.8;0.7;;;;;;;;;;;;;
2019/09/26 15:59:57;;;;;;;1.7;0.7;;;;;;;;;;;;;
2019/09/26 16:02:22;;;;;;;2.1;1.4;;;;;;;;;;;;;
2019/09/26 16:04:46;;;;;;;1.9;0.9;;;;;;;;;;;;;
2019/09/26 16:07:11;;;;;;;3.6;1.1;;;;;;;;;;;;;
2019/09/26 16:09:39;;;;;;;2.4;1;;;;;;;;;;;;;
2019/09/26 16:12:02;;;;;;;2.3;1.1;;;;;;;;;;;;;
2019/09/26 16:14:27;;;;;;;3.5;1.5;;;;;;;;;;;;;
2019/09/26 16:16:53;;;;;;;2.2;1.7;;;;;;;;;;;;;
2019/09/26 16:19:29;;;;;;;2.1;1.5;;;;;;;;;;;;;
2019/09/26 16:21:55;;;;;;;2.4;1.4;;;;;;;;;;;;;
2019/09/26 16:24:20;;;;;;;3.3;1.3;;;;;;;;;;;;;
2019/09/26 16:26:48;;;;;;;3.4;1.2;;;;;;;;;;;;;
2019/09/26 16:29:12;;;;;;;2.1;1.2;;;;;;;;;;;;;
2019/09/26 16:31:36;;;;;;;3.7;1.7;;;;;;;;;;;;;
2019/09/26 16:34:00;;;;;;;2.7;1.6;;;;;;;;;;;;;
2019/09/26 16:36:32;;;;;;;3.4;1.1;;;;;;;;;;;;;
2019/09/26 16:38:51;;;;;;;1.6;1.1;;;;;;;;;;;;;
2019/09/26 16:41:17;;;;;;;8.1;4.1;;;;;;;;;;;;;
2019/09/26 16:43:42;;;;;;;19.8;16.7;;;;;;;;;;;;;
2019/09/26 16:46:12;;;;;;;3.3;2.6;;;;;;;;;;;;;
2019/09/26 16:48:38;;;;;;;2.9;1.8;;;;;;;;;;;;;
2019/09/26 16:51:02;;;;;;;1.4;0.9;;;;;;;;;;;;;
2019/09/26 16:53:30;;;;;;;6.9;5.8;;;;;;;;;;;;;
2019/09/26 16:55:53;;;;;;;4.3;2.7;;;;;;;;;;;;;
2019/09/26 16:58:35;;;;;;;3.5;2.8;;;;;;;;;;;;;
2019/09/26 17:01:31;;;;;;;2.6;1.6;;;;;;;;;;;;;
2019/09/26 17:03:51;;;;;;;2.2;1.1;;;;;;;;;;;;;
2019/09/26 17:06:18;;;;;;;2.4;1.7;;;;;;;;;;;;;
2019/09/26 17:08:49;;;;;;;2.4;1.9;;;;;;;;;;;;;
2019/09/26 17:11:14;;;;;;;3;2.3;;;;;;;;;;;;;
2019/09/26 17:13:41;;;;;;;2.9;2.2;;;;;;;;;;;;;
2019/09/26 17:16:04;;;;;;;3.4;3.1;;;;;;;;;;;;;
2019/09/26 17:18:30;;;;;;;2.6;1.9;;;;;;;;;;;;;
2019/09/26 17:20:58;;;;;;;4.6;2.1;;;;;;;;;;;;;
2019/09/26 17:23:23;;;;;;;6;2.7;;;;;;;;;;;;;
2019/09/26 17:25:49;;;;;;;3.6;2.8;;;;;;;;;;;;;
2019/09/26 17:28:12;;;;;;;6.5;5;;;;;;;;;;;;;
2019/09/26 17:30:40;;;;;;;8.7;7.8;;;;;;;;;;;;;
2019/09/26 17:33:33;;;;;;;13.3;9.7;;;;;;;;;;;;;
2019/09/26 17:35:28;;;;;;;11.3;7.6;;;;;;;;;;;;;
2019/09/26 17:37:52;;;;;;;8.8;6.4;;;;;;;;;;;;;
2019/09/26 17:40:31;;;;;;;9.1;6.4;;;;;;;;;;;;;
2019/09/26 17:42:58;;;;;;;5;3.5;;;;;;;;;;;;;
2019/09/26 17:45:32;;;;;;;4.5;3.1;;;;;;;;;;;;;
2019/09/26 17:48:02;;;;;;;5.4;3.5;;;;;;;;;;;;;
2019/09/26 17:50:57;;;;;;;7.4;3.8;;;;;;;;;;;;;
2019/09/26 17:52:40;;;;;;;5.4;3.1;;;;;;;;;;;;;
2019/09/26 17:55:17;;;;;;;2.9;2.3;;;;;;;;;;;;;
2019/09/26 17:57:35;;;;;;;3.1;1.8;;;;;;;;;;;;;
2019/09/26 17:59:57;;;;;;;3.5;2.3;;;;;;;;;;;;;
2019/09/26 18:02:22;;;;;;;5.8;2.5;;;;;;;;;;;;;
2019/09/26 18:04:49;;;;;;;4.7;2.5;;;;;;;;;;;;;
2019/09/26 18:07:16;;;;;;;5.4;2.8;;;;;;;;;;;;;
2019/09/26 18:09:43;;;;;;;4.8;2.8;;;;;;;;;;;;;
2019/09/26 18:12:08;;;;;;;6.1;3.7;;;;;;;;;;;;;
2019/09/26 18:14:32;;;;;;;8.1;5.5;;;;;;;;;;;;;
2019/09/26 18:16:58;;;;;;;6.7;3.8;;;;;;;;;;;;;
2019/09/26 18:19:24;;;;;;;4.1;3;;;;;;;;;;;;;
2019/09/26 18:21:48;;;;;;;8;4.1;;;;;;;;;;;;;
2019/09/26 18:24:15;;;;;;;9.2;6.3;;;;;;;;;;;;;
2019/09/26 18:26:43;;;;;;;5.8;4.4;;;;;;;;;;;;;
2019/09/26 18:29:08;;;;;;;6.9;4;;;;;;;;;;;;;
2019/09/26 18:31:33;;;;;;;4.4;2.9;;;;;;;;;;;;;
2019/09/26 18:33:58;;;;;;;4.9;2.8;;;;;;;;;;;;;
2019/09/26 18:36:25;;;;;;;3.5;2.3;;;;;;;;;;;;;
2019/09/26 18:38:50;;;;;;;4.6;3.1;;;;;;;;;;;;;
2019/09/26 18:41:31;;;;;;;4.5;2.7;;;;;;;;;;;;;
2019/09/26 18:43:47;;;;;;;5.2;2.7;;;;;;;;;;;;;
2019/09/26 18:46:15;;;;;;;2.5;1.4;;;;;;;;;;;;;
2019/09/26 18:48:41;;;;;;;3.3;1.6;;;;;;;;;;;;;
2019/09/26 18:51:03;;;;;;;4.7;2.2;;;;;;;;;;;;;
2019/09/26 18:53:27;;;;;;;4.5;2.1;;;;;;;;;;;;;
2019/09/26 18:55:55;;;;;;;3.5;2.2;;;;;;;;;;;;;
2019/09/26 18:58:24;;;;;;;5.1;2.6;;;;;;;;;;;;;
2019/09/26 19:00:57;;;;;;;4.9;3.1;;;;;;;;;;;;;
2019/09/26 19:03:30;;;;;;;8.4;3.4;;;;;;;;;;;;;
2019/09/26 19:08:33;;;;;;;5.1;2.8;;;;;;;;;;;;;
2019/09/26 19:10:54;;;;;;;5.2;2.7;;;;;;;;;;;;;
2019/09/26 19:13:20;;;;;;;5;3.2;;;;;;;;;;;;;
2019/09/26 19:15:50;;;;;;;6.7;3.5;;;;;;;;;;;;;
2019/09/26 19:18:14;;;;;;;6.5;3.5;;;;;;;;;;;;;
2019/09/26 19:20:36;;;;;;;6.6;3;;;;;;;;;;;;;
2019/09/26 19:25:29;;;;;;;7.2;2.9;;;;;;;;;;;;;
2019/09/26 19:27:54;;;;;;;6;3.3;;;;;;;;;;;;;
2019/09/26 19:30:18;;;;;;;7;3.2;;;;;;;;;;;;;
2019/09/26 19:32:42;;;;;;;7.2;2.7;;;;;;;;;;;;;
2019/09/26 19:35:10;;;;;;;6.2;2.6;;;;;;;;;;;;;
2019/09/26 19:37:34;;;;;;;5.1;2.3;;;;;;;;;;;;;
2019/09/26 19:39:57;;;;;;;2.5;1.9;;;;;;;;;;;;;
2019/09/26 19:42:23;;;;;;;2.5;1.7;;;;;;;;;;;;;
2019/09/26 19:44:47;;;;;;;5.9;3.4;;;;;;;;;;;;;
2019/09/26 19:47:15;;;;;;;4.3;2.9;;;;;;;;;;;;;
2019/09/26 19:49:38;;;;;;;4.9;2.8;;;;;;;;;;;;;
2019/09/26 19:52:32;;;;;;;3.1;2.2;;;;;;;;;;;;;
2019/09/26 19:54:57;;;;;;;5.1;2.2;;;;;;;;;;;;;
2019/09/26 19:57:25;;;;;;;3.4;2.2;;;;;;;;;;;;;
2019/09/26 19:59:49;;;;;;;3.1;2;;;;;;;;;;;;;
2019/09/26 20:02:13;;;;;;;3.9;2.8;;;;;;;;;;;;;
2019/09/26 20:04:39;;;;;;;4.6;2.8;;;;;;;;;;;;;
2019/09/26 20:07:06;;;;;;;2.8;1.5;;;;;;;;;;;;;
2019/09/26 20:09:32;;;;;;;3.5;1.8;;;;;;;;;;;;;
2019/09/26 20:11:55;;;;;;;6.2;2.2;;;;;;;;;;;;;
2019/09/26 20:14:21;;;;;;;2.7;2;;;;;;;;;;;;;
2019/09/26 20:16:53;;;;;;;2.6;2;;;;;;;;;;;;;
2019/09/26 20:19:11;;;;;;;3.3;2.1;;;;;;;;;;;;;
2019/09/26 20:21:37;;;;;;;4.1;2.2;;;;;;;;;;;;;
2019/09/26 20:24:04;;;;;;;3.9;2.1;;;;;;;;;;;;;
2019/09/26 20:26:32;;;;;;;3.8;1.6;;;;;;;;;;;;;
2019/09/26 20:28:55;;;;;;;5.6;2.5;;;;;;;;;;;;;
2019/09/26 20:31:21;;;;;;;3.2;2.4;;;;;;;;;;;;;